Fairmount, Texas
Current Conditions -  °F | °C
As of 12:15 AM on Sunday 21 Dec 2014 (Local Time) from KJAS Reporting Station
Haze Haze  
Wind Chill: 40°   Ceiling: 500
Heat Index: 40°   Visibility: 0.75mi
Dew Point: 39°   Wind: 0mph
Humidity: 98%   Direction: NA
Pressure: 30.21"   Gusts: NA
Location:  31.2799°N, 93.803°W
Report Text: KJAS 210615Z AUTO 00000KT 3/4SM BR VV005 04/04 A3021 RMK AO2 T00440041
Loading
Personal Weather Stations






























Interactive Weather Map New forecast layout! Learn more

10-Day Weather Forecast

Advertisements
Track Severe Weather on mobile